Portada
METAR-TAF:

METAR-TAF

Aeroports :

Boulder City, Nevada, Estats Units d'Amèrica

latitud: 35-56-50N, longitud: 114-51-37W, altitud: 671 m

Observació

L'informe es va fer fa 16 minuts, a les 08:55 UTC
Vent calma
Temperatura 9°C
Humitat 53%
Pressió 1020 hPa
Visibilitat: 16.1 km
Cel clar

METAR: KBVU 260855Z AUTO 00000KT 10SM CLR 09/M00 A3012 RMK AO2

Hora: 01:11 (09:11 UTC)


TAF: manca

Observacions i pronòstics meteorològics de més de 4000 aeroports (METAR i TAF).

Les estacions disponibles són els punts grocs i vermells al mapa.

Posi el ratolí al punt desitjat per veure el nom de l'estació.

Feu clic per veure les observacions i els pronòstics meteorològics.

Per canviar el mapa: feu clic els botons verds amb una creu de color negre per apropar; al botó verd amb un guió per allunyar la imatge; o en les fletxes verdes per a mapes adjacents.


METAR-TAF: